Terminal Aerodrome Forecast
Issued by NWS

Home | Current Version | Previous Version | Text Only | Print | Product List | Glossary On
Versions: 1 2 3 4 5 6 7 8 9 10 11 12 13 14 15 16
000
FTUS42 TJSJ 270200 AAA
TAFJSJ
TAF AMD
TJSJ 270210Z 2702/2724 07008KT P6SM VCSH FEW025
      TEMPO 2702/2703 -SHRA SCT015 BKN030
     FM270300 00000KT P6SM SKC
     FM271300 06013KT P6SM FEW030
     FM272200 05006KT P6SM VCSH SCT025=

USA.gov is the U.S. government's official web portal to all federal, state and local government web resources and services.